Time;durP1;ratioP1;P1;durP2;ratioP2;P2;SDS_P1;SDS_P2;PMS_P1;PMS_P2;Temp;Humidity;BMP_temperature;BMP_pressure;BME280_temperature;BME280_humidity;BME280_pressure;Samples;Min_cycle;Max_cycle;Signal;HPM_P1;HPM_P2
2021/01/26 00:01:30;;;;;;;0.43;0.43;;;2.40;99.90;;;;;;4414965;32;20082;-75
2021/01/26 00:03:55;;;;;;;0.45;0.45;;;2.40;99.90;;;;;;4413742;32;20065;-75
2021/01/26 00:06:21;;;;;;;0.62;0.62;;;2.30;99.90;;;;;;4412857;32;20062;-75
2021/01/26 00:08:47;;;;;;;0.57;0.57;;;2.30;99.90;;;;;;4398990;32;20074;-75
2021/01/26 00:11:13;;;;;;;0.90;0.90;;;2.40;99.90;;;;;;4399959;32;20078;-75
2021/01/26 00:13:38;;;;;;;1.65;1.30;;;2.40;99.90;;;;;;4414151;32;20074;-75
2021/01/26 00:16:05;;;;;;;0.90;0.90;;;2.40;99.90;;;;;;4414045;32;20405;-75
2021/01/26 00:18:30;;;;;;;2.65;1.20;;;2.40;99.90;;;;;;4413267;32;20488;-75
2021/01/26 00:20:56;;;;;;;0.70;0.70;;;2.50;99.90;;;;;;4413442;32;20077;-75
2021/01/26 00:23:22;;;;;;;1.87;1.65;;;2.50;99.90;;;;;;4414698;32;20065;-75
2021/01/26 00:25:48;;;;;;;0.82;0.82;;;2.50;99.90;;;;;;4414556;32;20540;-75
2021/01/26 00:28:15;;;;;;;1.85;1.05;;;2.50;99.90;;;;;;4413828;32;20065;-75
2021/01/26 00:30:42;;;;;;;5.82;0.77;;;2.50;99.90;;;;;;4414067;32;20546;-75
2021/01/26 00:35:38;;;;;;;6.07;1.37;;;2.60;99.90;;;;;;4413019;32;20177;-75
2021/01/26 00:38:05;;;;;;;0.65;0.65;;;2.50;99.90;;;;;;4413550;32;20098;-75
2021/01/26 00:40:31;;;;;;;0.50;0.50;;;2.50;99.90;;;;;;4413713;32;20142;-75
2021/01/26 00:42:58;;;;;;;5.15;1.30;;;2.40;99.90;;;;;;4413855;32;20057;-75
2021/01/26 00:45:25;;;;;;;0.60;0.60;;;2.50;99.90;;;;;;4413435;32;20523;-75
2021/01/26 00:47:50;;;;;;;5.22;1.42;;;2.50;99.90;;;;;;4414099;32;20082;-75
2021/01/26 00:50:17;;;;;;;1.17;1.08;;;2.60;99.90;;;;;;4414187;32;20078;-75
2021/01/26 00:52:43;;;;;;;2.62;1.80;;;2.60;99.90;;;;;;4414624;32;20078;-75
2021/01/26 00:55:09;;;;;;;0.62;0.62;;;2.60;99.90;;;;;;4416160;32;20074;-75
2021/01/26 00:57:35;;;;;;;0.77;0.77;;;2.50;99.90;;;;;;4416605;32;20074;-75
2021/01/26 01:00:00;;;;;;;1.30;1.20;;;2.50;99.90;;;;;;4415927;32;20065;-75
2021/01/26 01:02:26;;;;;;;1.87;1.00;;;2.50;99.90;;;;;;4415945;32;20074;-75
2021/01/26 01:04:51;;;;;;;0.68;0.68;;;2.50;99.90;;;;;;4416439;32;20077;-75
2021/01/26 01:07:18;;;;;;;1.30;0.85;;;2.40;99.90;;;;;;4408982;32;20070;-75
2021/01/26 01:09:44;;;;;;;0.50;0.50;;;2.40;99.90;;;;;;4400830;32;20595;-75
2021/01/26 01:12:10;;;;;;;0.60;0.60;;;2.50;99.90;;;;;;4409201;32;20069;-75
2021/01/26 01:14:38;;;;;;;0.90;0.90;;;2.50;99.90;;;;;;4415608;32;20057;-75
2021/01/26 01:17:04;;;;;;;0.85;0.80;;;2.50;99.90;;;;;;4415414;32;20066;-75
2021/01/26 01:19:29;;;;;;;0.60;0.60;;;2.40;99.90;;;;;;4415236;32;20078;-75
2021/01/26 01:21:55;;;;;;;0.45;0.45;;;2.40;99.90;;;;;;4415798;32;20161;-75
2021/01/26 01:24:20;;;;;;;0.60;0.60;;;2.40;99.90;;;;;;4416456;32;20141;-75
2021/01/26 01:26:45;;;;;;;1.17;1.08;;;2.30;99.90;;;;;;4415817;32;20508;-75
2021/01/26 01:29:12;;;;;;;1.50;1.08;;;2.30;99.90;;;;;;4416275;32;20066;-75
2021/01/26 01:31:38;;;;;;;1.35;0.90;;;2.30;99.90;;;;;;4415578;32;20074;-75
2021/01/26 01:34:06;;;;;;;2.22;1.27;;;2.30;99.90;;;;;;4416045;32;20074;-75
2021/01/26 01:36:33;;;;;;;0.82;0.82;;;2.30;99.90;;;;;;4415206;32;20124;-74
2021/01/26 01:38:59;;;;;;;1.50;1.12;;;2.40;99.90;;;;;;4415431;32;20527;-73
2021/01/26 01:41:30;;;;;;;1.12;1.02;;;2.30;99.90;;;;;;4415610;32;20062;-73
2021/01/26 01:43:55;;;;;;;;;;;2.30;99.90;;;;;;4415940;32;20073;-73
2021/01/26 01:46:22;;;;;;;0.40;0.40;;;2.40;99.90;;;;;;4410107;32;19957;-75
2021/01/26 01:48:49;;;;;;;3.00;2.15;;;2.40;99.90;;;;;;4400450;32;20058;-73
2021/01/26 01:51:20;;;;;;;0.75;0.75;;;2.40;99.90;;;;;;4401511;32;20417;-73
2021/01/26 01:53:50;;;;;;;1.85;1.45;;;2.40;99.90;;;;;;4401124;32;20511;-74
2021/01/26 01:56:27;;;;;;;0.47;0.47;;;2.30;99.90;;;;;;4400427;32;20061;-73
2021/01/26 01:58:59;;;;;;;0.82;0.82;;;2.30;99.90;;;;;;4400600;32;20067;-73
2021/01/26 02:01:28;;;;;;;1.95;1.10;;;2.30;99.90;;;;;;4400466;32;20057;-73
2021/01/26 02:03:58;;;;;;;3.10;1.40;;;2.20;99.90;;;;;;4399687;32;20070;-76
2021/01/26 02:06:28;;;;;;;0.62;0.62;;;2.30;99.90;;;;;;4398971;32;20074;-74
2021/01/26 02:09:18;;;;;;;0.68;0.68;;;2.30;99.90;;;;;;4386295;32;20066;-73
2021/01/26 02:11:44;;;;;;;0.85;0.70;;;2.30;99.90;;;;;;4395305;32;20120;-74
2021/01/26 02:14:10;;;;;;;0.60;0.60;;;2.30;99.90;;;;;;4415177;32;20498;-74
2021/01/26 02:17:16;;;;;;;0.80;0.80;;;2.20;99.90;;;;;;4415125;32;20096;-74
2021/01/26 02:20:05;;;;;;;0.50;0.50;;;2.20;99.90;;;;;;4405750;32;20074;-73
2021/01/26 02:23:07;;;;;;;0.50;0.50;;;2.20;99.90;;;;;;4414407;32;20121;-74
2021/01/26 02:26:13;;;;;;;0.62;0.62;;;2.10;99.90;;;;;;4414759;32;20078;-74
2021/01/26 02:29:00;;;;;;;0.50;0.50;;;2.10;99.90;;;;;;4405259;32;20077;-74
2021/01/26 02:31:38;;;;;;;0.60;0.60;;;2.00;99.90;;;;;;4414851;32;20264;-74
2021/01/26 02:34:29;;;;;;;0.40;0.40;;;2.00;99.90;;;;;;4415175;32;20070;-74
2021/01/26 02:37:11;;;;;;;;;;;2.10;99.90;;;;;;4414719;32;20079;-74
2021/01/26 02:39:56;;;;;;;9.93;1.42;;;2.00;99.90;;;;;;4414909;32;20335;-74
2021/01/26 02:42:37;;;;;;;0.50;0.50;;;2.10;99.90;;;;;;4415101;32;20711;-74
2021/01/26 02:45:41;;;;;;;0.60;0.60;;;2.00;99.90;;;;;;4415977;32;20136;-74
2021/01/26 02:48:39;;;;;;;0.70;0.70;;;2.00;99.90;;;;;;4413937;32;20136;-74
2021/01/26 02:51:14;;;;;;;0.93;0.70;;;2.00;99.90;;;;;;4414162;32;20108;-74
2021/01/26 02:53:58;;;;;;;9.38;2.53;;;2.00;99.90;;;;;;4415872;32;20065;-74
2021/01/26 02:56:34;;;;;;;2.62;0.98;;;2.00;99.90;;;;;;4414736;32;20146;-74
2021/01/26 02:59:26;;;;;;;0.50;0.50;;;2.00;99.90;;;;;;4415490;32;20063;-74
2021/01/26 03:02:03;;;;;;;2.15;1.77;;;2.00;99.90;;;;;;4415126;32;20089;-74
2021/01/26 03:04:38;;;;;;;0.80;0.80;;;2.00;99.90;;;;;;4414720;32;20507;-74
2021/01/26 03:07:05;;;;;;;1.00;1.00;;;1.90;99.90;;;;;;4409550;32;20065;-74
2021/01/26 03:09:39;;;;;;;0.50;0.50;;;1.80;99.90;;;;;;4399355;32;20485;-74
2021/01/26 03:12:10;;;;;;;0.90;0.90;;;1.80;99.90;;;;;;4407177;32;20132;-74
2021/01/26 03:14:43;;;;;;;2.37;1.20;;;1.80;99.90;;;;;;4413878;32;20593;-74
2021/01/26 03:17:19;;;;;;;5.35;1.58;;;1.80;99.90;;;;;;4414449;32;20120;-74
2021/01/26 03:19:50;;;;;;;0.55;0.55;;;1.70;99.90;;;;;;4414569;32;20077;-74
2021/01/26 03:22:18;;;;;;;;;;;1.60;99.90;;;;;;4415971;32;20119;-74
2021/01/26 03:24:45;;;;;;;0.80;0.80;;;1.60;99.90;;;;;;4416017;32;19969;-74
2021/01/26 03:27:17;;;;;;;2.53;1.23;;;1.60;99.90;;;;;;4415563;32;20562;-74
2021/01/26 03:29:46;;;;;;;0.55;0.55;;;1.60;99.90;;;;;;4415480;32;20065;-74
2021/01/26 03:32:19;;;;;;;0.60;0.60;;;1.50;99.90;;;;;;4414610;32;20058;-74
2021/01/26 03:34:45;;;;;;;0.55;0.55;;;1.50;99.90;;;;;;4414295;32;20098;-74
2021/01/26 03:37:11;;;;;;;2.12;1.48;;;1.50;99.90;;;;;;4414282;32;20074;-74
2021/01/26 03:39:37;;;;;;;3.00;1.42;;;1.50;99.90;;;;;;4414898;32;20388;-74
2021/01/26 03:42:03;;;;;;;0.40;0.40;;;1.50;99.90;;;;;;4414512;32;20082;-74
2021/01/26 03:44:29;;;;;;;0.60;0.60;;;1.50;99.90;;;;;;4414552;32;20503;-74
2021/01/26 03:47:34;;;;;;;3.92;1.55;;;1.50;99.90;;;;;;4414073;32;20058;-74
2021/01/26 03:50:16;;;;;;;0.40;0.40;;;1.50;99.90;;;;;;4404982;32;20565;-74
2021/01/26 03:53:22;;;;;;;0.82;0.82;;;1.40;99.90;;;;;;4414090;32;20120;-74
2021/01/26 03:56:11;;;;;;;0.62;0.62;;;1.30;99.90;;;;;;4404925;32;20132;-74
2021/01/26 03:59:03;;;;;;;0.60;0.60;;;1.30;99.90;;;;;;4413094;32;20085;-74
2021/01/26 04:01:40;;;;;;;0.68;0.68;;;1.30;99.90;;;;;;4413471;32;20061;-74
2021/01/26 04:04:31;;;;;;;1.12;0.98;;;1.30;99.90;;;;;;4413834;32;20078;-74
2021/01/26 04:07:01;;;;;;;1.48;1.37;;;1.10;99.90;;;;;;4408191;32;20066;-74
2021/01/26 04:09:34;;;;;;;3.97;1.58;;;1.10;99.90;;;;;;4399047;32;20139;-74
2021/01/26 04:12:08;;;;;;;0.77;0.77;;;1.10;99.90;;;;;;4405934;32;20144;-74
2021/01/26 04:14:38;;;;;;;1.23;1.15;;;1.10;99.90;;;;;;4413402;32;20066;-74
2021/01/26 04:17:10;;;;;;;0.80;0.80;;;1.10;99.90;;;;;;4415031;32;20065;-74
2021/01/26 04:19:48;;;;;;;0.40;0.40;;;1.20;99.90;;;;;;4415204;32;20526;-74
2021/01/26 04:22:15;;;;;;;0.60;0.60;;;1.30;99.90;;;;;;4413717;32;20072;-74
2021/01/26 04:24:40;;;;;;;0.80;0.65;;;1.30;99.90;;;;;;4414131;32;20132;-74
2021/01/26 04:27:11;;;;;;;0.60;0.60;;;1.40;99.90;;;;;;4414572;32;20087;-74
2021/01/26 04:29:37;;;;;;;5.28;1.45;;;1.30;99.90;;;;;;4414972;32;20065;-74
2021/01/26 04:32:03;;;;;;;0.70;0.70;;;1.20;99.90;;;;;;4413642;32;20090;-74
2021/01/26 04:34:28;;;;;;;1.00;0.88;;;1.20;99.90;;;;;;4413756;32;20062;-74
2021/01/26 04:36:53;;;;;;;0.75;0.75;;;1.10;99.90;;;;;;4413616;32;20086;-74
2021/01/26 04:39:19;;;;;;;0.77;0.77;;;1.10;99.90;;;;;;4413520;32;20061;-74
2021/01/26 04:41:52;;;;;;;10.77;1.52;;;1.10;99.90;;;;;;4413517;32;20459;-74
2021/01/26 04:44:57;;;;;;;0.85;0.85;;;1.10;99.90;;;;;;4413866;32;20062;-74
2021/01/26 04:47:33;;;;;;;1.60;1.50;;;1.10;99.90;;;;;;4403657;32;20151;-74
2021/01/26 04:50:14;;;;;;;6.32;0.82;;;1.20;99.90;;;;;;4413533;32;20065;-74
2021/01/26 04:53:09;;;;;;;0.85;0.85;;;1.20;99.90;;;;;;4413676;32;20125;-74
2021/01/26 04:55:37;;;;;;;0.55;0.55;;;1.10;99.90;;;;;;4412540;32;20124;-74
2021/01/26 04:58:28;;;;;;;2.67;1.50;;;1.10;99.90;;;;;;4414402;32;20078;-74
2021/01/26 05:01:28;;;;;;;1.25;1.17;;;1.10;99.90;;;;;;4414232;32;20069;-74
2021/01/26 05:04:19;;;;;;;1.60;1.50;;;1.10;99.90;;;;;;4412995;32;20073;-74
2021/01/26 05:06:50;;;;;;;4.43;2.12;;;1.10;99.90;;;;;;4410605;32;20496;-74
2021/01/26 05:09:21;;;;;;;0.70;0.70;;;1.10;99.90;;;;;;4398362;32;20070;-74
2021/01/26 05:11:48;;;;;;;1.00;1.00;;;0.80;99.90;;;;;;4403496;32;20057;-74
2021/01/26 05:14:20;;;;;;;1.02;1.02;;;0.70;99.90;;;;;;4413489;32;20073;-74
2021/01/26 05:17:09;;;;;;;0.60;0.60;;;0.80;99.90;;;;;;4413155;32;20119;-74
2021/01/26 05:19:41;;;;;;;0.90;0.90;;;0.70;99.90;;;;;;4412626;32;20070;-74
2021/01/26 05:22:15;;;;;;;0.60;0.60;;;0.70;99.90;;;;;;4413970;32;20082;-74
2021/01/26 05:24:48;;;;;;;0.50;0.50;;;0.70;99.90;;;;;;4413132;32;20081;-74
2021/01/26 05:27:14;;;;;;;0.60;0.60;;;0.80;99.90;;;;;;4413322;32;20081;-74
2021/01/26 05:29:41;;;;;;;4.28;0.80;;;0.70;99.90;;;;;;4413685;32;20108;-74
2021/01/26 05:32:09;;;;;;;0.68;0.68;;;0.70;99.90;;;;;;4413041;32;20502;-74
2021/01/26 05:34:36;;;;;;;0.47;0.47;;;0.70;99.90;;;;;;4413184;32;20136;-74
2021/01/26 05:37:06;;;;;;;0.60;0.60;;;0.70;99.90;;;;;;4412777;32;20070;-74
2021/01/26 05:39:42;;;;;;;1.65;1.48;;;0.60;99.90;;;;;;4415245;32;20082;-74
2021/01/26 05:42:09;;;;;;;1.55;0.90;;;0.50;99.90;;;;;;4416948;32;20116;-74
2021/01/26 05:44:36;;;;;;;0.40;0.40;;;0.40;99.90;;;;;;4415994;32;20416;-74
2021/01/26 05:47:20;;;;;;;1.23;1.00;;;0.40;99.90;;;;;;4415335;32;20516;-74
2021/01/26 05:49:46;;;;;;;0.55;0.55;;;0.50;99.90;;;;;;4415417;32;20121;-74
2021/01/26 05:52:12;;;;;;;1.00;0.88;;;0.50;99.90;;;;;;4414995;32;20061;-74
2021/01/26 05:54:46;;;;;;;0.68;0.68;;;0.60;99.90;;;;;;4415837;32;20086;-74
2021/01/26 05:57:22;;;;;;;0.68;0.68;;;0.60;99.90;;;;;;4415549;32;20069;-74
2021/01/26 05:59:48;;;;;;;0.82;0.80;;;0.50;99.90;;;;;;4415618;32;20077;-74
2021/01/26 06:02:17;;;;;;;0.95;0.95;;;0.40;99.90;;;;;;4410854;32;20069;-74
2021/01/26 06:04:43;;;;;;;0.62;0.62;;;0.40;99.90;;;;;;4411293;32;20069;-74
2021/01/26 06:07:26;;;;;;;0.32;0.32;;;0.30;99.90;;;;;;4409747;32;20472;-74
2021/01/26 06:09:52;;;;;;;0.75;0.75;;;0.40;99.90;;;;;;4412678;32;20077;-74
2021/01/26 06:12:23;;;;;;;0.60;0.60;;;0.30;99.90;;;;;;4407832;32;20079;-74
2021/01/26 06:14:58;;;;;;;1.20;0.85;;;0.30;99.90;;;;;;4399364;32;20082;-74
2021/01/26 06:17:29;;;;;;;1.08;0.98;;;0.30;99.90;;;;;;4400261;32;20077;-74
2021/01/26 06:20:18;;;;;;;1.45;0.90;;;0.40;99.90;;;;;;4400241;32;20500;-74
2021/01/26 06:22:43;;;;;;;0.70;0.70;;;0.30;99.90;;;;;;4400067;32;20092;-74
2021/01/26 06:25:28;;;;;;;0.32;0.32;;;0.30;99.90;;;;;;4400324;32;20186;-74
2021/01/26 06:28:12;;;;;;;0.62;0.62;;;0.30;99.90;;;;;;4400207;32;20456;-74
2021/01/26 06:31:00;;;;;;;0.40;0.40;;;0.20;99.90;;;;;;4400257;32;20082;-74
2021/01/26 06:33:37;;;;;;;1.65;1.42;;;0.20;99.90;;;;;;4398772;32;20057;-74
2021/01/26 06:36:31;;;;;;;2.15;1.45;;;0.20;99.90;;;;;;4399910;32;20078;-75
2021/01/26 06:39:00;;;;;;;1.00;0.95;;;0.20;99.90;;;;;;4399920;32;20065;-74
2021/01/26 06:41:58;;;;;;;0.60;0.60;;;0.20;99.90;;;;;;4398302;32;20083;-74
2021/01/26 06:44:47;;;;;;;0.60;0.60;;;0.30;99.90;;;;;;4399078;32;20066;-74
2021/01/26 06:47:29;;;;;;;2.35;2.15;;;0.30;99.90;;;;;;4399336;32;20097;-74
2021/01/26 06:50:22;;;;;;;0.90;0.90;;;0.40;99.90;;;;;;4399114;32;20058;-74
2021/01/26 06:53:13;;;;;;;0.60;0.60;;;0.40;99.90;;;;;;4398361;32;20090;-74
2021/01/26 06:55:55;;;;;;;0.75;0.75;;;0.40;99.90;;;;;;4398905;32;20499;-74
2021/01/26 06:58:32;;;;;;;0.77;0.77;;;0.40;99.90;;;;;;4410958;32;20089;-74
2021/01/26 07:01:22;;;;;;;1.75;1.52;;;0.50;99.90;;;;;;4415046;32;20066;-74
2021/01/26 07:04:18;;;;;;;1.58;1.40;;;0.50;99.90;;;;;;4414596;32;20077;-74
2021/01/26 07:07:10;;;;;;;0.62;0.62;;;0.50;99.90;;;;;;4411056;32;20082;-74
2021/01/26 07:09:57;;;;;;;0.98;0.98;;;0.50;99.90;;;;;;4398439;32;20564;-74
2021/01/26 07:12:39;;;;;;;1.77;1.62;;;0.40;99.90;;;;;;4397631;32;20070;-74
2021/01/26 07:15:17;;;;;;;1.55;1.25;;;0.40;99.90;;;;;;4399826;32;20070;-74
2021/01/26 07:18:23;;;;;;;6.22;1.10;;;0.40;99.90;;;;;;4394557;32;20137;-74
2021/01/26 07:21:28;;;;;;;0.32;0.32;;;0.50;99.90;;;;;;4389316;32;20067;-74
2021/01/26 07:24:21;;;;;;;0.70;0.70;;;0.60;99.90;;;;;;4407290;32;20132;-74
2021/01/26 07:27:12;;;;;;;0.57;0.57;;;0.60;99.90;;;;;;4408315;32;20070;-74
2021/01/26 07:29:44;;;;;;;;;;;0.60;99.90;;;;;;4398803;32;20066;-74
2021/01/26 07:32:36;;;;;;;0.65;0.65;;;0.60;99.90;;;;;;4400000;32;19990;-74
2021/01/26 07:35:26;;;;;;;1.08;1.05;;;0.50;99.90;;;;;;4396925;32;20073;-74
2021/01/26 07:38:05;;;;;;;0.50;0.50;;;0.40;99.90;;;;;;4397756;32;20086;-74
2021/01/26 07:40:55;;;;;;;0.40;0.40;;;0.40;99.90;;;;;;4399175;32;20069;-74
2021/01/26 07:43:26;;;;;;;0.82;0.82;;;0.40;99.90;;;;;;4397579;32;20069;-74
2021/01/26 07:46:20;;;;;;;0.50;0.50;;;0.50;99.90;;;;;;4399605;32;20393;-74
2021/01/26 07:49:06;;;;;;;0.40;0.40;;;0.50;99.90;;;;;;4396637;32;20499;-74
2021/01/26 07:51:38;;;;;;;0.40;0.40;;;0.60;99.90;;;;;;4398523;32;20074;-74
2021/01/26 07:54:10;;;;;;;0.50;0.50;;;0.60;99.90;;;;;;4395338;32;20066;-74
2021/01/26 07:56:38;;;;;;;0.77;0.77;;;0.60;99.90;;;;;;4384487;32;20453;-74
2021/01/26 07:59:08;;;;;;;0.52;0.52;;;0.70;99.90;;;;;;4412838;32;20102;-75
2021/01/26 08:01:40;;;;;;;4.53;1.90;;;0.70;99.90;;;;;;4406564;32;20084;-74
2021/01/26 08:04:07;;;;;;;1.00;1.00;;;0.80;99.90;;;;;;4399081;32;20147;-74
2021/01/26 08:06:39;;;;;;;0.30;0.30;;;0.80;99.90;;;;;;4401322;32;20062;-74
2021/01/26 08:09:10;;;;;;;0.50;0.50;;;0.90;99.90;;;;;;4401657;32;20066;-74
2021/01/26 08:11:48;;;;;;;0.68;0.68;;;0.80;99.90;;;;;;4409971;32;20551;-75
2021/01/26 08:14:13;;;;;;;0.82;0.77;;;0.90;99.90;;;;;;4413834;32;20498;-75
2021/01/26 08:16:44;;;;;;;0.40;0.40;;;1.00;99.90;;;;;;4406058;32;20058;-74
2021/01/26 08:19:22;;;;;;;0.70;0.70;;;0.90;99.90;;;;;;4397674;32;20197;-74
2021/01/26 08:21:48;;;;;;;0.60;0.60;;;0.90;99.90;;;;;;4398456;32;20057;-74
2021/01/26 08:24:27;;;;;;;0.68;0.68;;;1.10;99.90;;;;;;4397684;32;20528;-74
2021/01/26 08:26:55;;;;;;;0.85;0.82;;;1.20;99.90;;;;;;4398124;32;20062;-75
2021/01/26 08:29:45;;;;;;;0.70;0.70;;;1.20;99.90;;;;;;4398473;32;20225;-74
2021/01/26 08:32:31;;;;;;;5.90;0.70;;;1.30;99.90;;;;;;4396682;32;20087;-75
2021/01/26 08:35:00;;;;;;;2.45;0.98;;;1.30;99.90;;;;;;4397378;32;20078;-75
2021/01/26 08:37:43;;;;;;;1.75;1.52;;;1.30;99.90;;;;;;4397604;32;20079;-75
2021/01/26 08:40:21;;;;;;;1.45;1.23;;;1.30;99.90;;;;;;4398018;32;20500;-74
2021/01/26 08:42:50;;;;;;;0.90;0.85;;;1.30;99.90;;;;;;4395659;32;94160;-74
2021/01/26 08:45:38;;;;;;;0.93;0.90;;;1.40;99.90;;;;;;4397923;32;20421;-75
2021/01/26 08:48:07;;;;;;;0.62;0.60;;;1.60;99.90;;;;;;4396020;32;20082;-75
2021/01/26 08:50:39;;;;;;;0.57;0.57;;;1.60;99.90;;;;;;4400021;32;20062;-74
2021/01/26 08:53:30;;;;;;;2.15;1.30;;;1.60;99.90;;;;;;4403789;32;20112;-74
2021/01/26 08:56:01;;;;;;;0.73;0.73;;;1.50;99.90;;;;;;4398738;32;20058;-74
2021/01/26 08:58:49;;;;;;;8.38;1.25;;;1.60;99.90;;;;;;4398480;32;20074;-75
2021/01/26 09:01:25;;;;;;;0.68;0.68;;;1.60;99.90;;;;;;4382135;32;20079;-75
2021/01/26 09:03:53;;;;;;;0.80;0.80;;;1.60;99.90;;;;;;4390310;32;20065;-75
2021/01/26 09:06:45;;;;;;;1.77;0.90;;;1.70;99.90;;;;;;4401791;32;20559;-75
2021/01/26 09:09:32;;;;;;;3.03;1.80;;;1.70;99.90;;;;;;4397822;32;20110;-75
2021/01/26 09:12:00;;;;;;;0.40;0.40;;;1.90;99.90;;;;;;4398182;32;20070;-75
2021/01/26 09:14:34;;;;;;;3.97;2.37;;;2.00;99.90;;;;;;4400107;32;20070;-75
2021/01/26 09:17:14;;;;;;;2.00;1.20;;;2.00;99.90;;;;;;4399992;32;20078;-74
2021/01/26 09:19:44;;;;;;;1.90;1.40;;;2.10;99.90;;;;;;4400698;32;20075;-75
2021/01/26 09:22:16;;;;;;;2.37;1.12;;;2.10;99.90;;;;;;4400266;32;20082;-75
2021/01/26 09:24:42;;;;;;;1.05;0.65;;;2.30;99.90;;;;;;4400243;32;20558;-75
2021/01/26 09:27:19;;;;;;;6.65;1.42;;;2.10;99.90;;;;;;4402149;32;20058;-75
2021/01/26 09:29:44;;;;;;;0.62;0.62;;;2.20;99.90;;;;;;4385392;32;20121;-75
2021/01/26 09:32:10;;;;;;;0.95;0.82;;;2.30;99.90;;;;;;4397577;32;20062;-75
2021/01/26 09:34:37;;;;;;;1.02;1.02;;;2.20;99.90;;;;;;4400243;32;20070;-75
2021/01/26 09:37:13;;;;;;;0.85;0.85;;;2.40;99.90;;;;;;4399817;32;20058;-75
2021/01/26 09:39:39;;;;;;;2.72;1.17;;;2.50;99.90;;;;;;4400661;32;20496;-75
2021/01/26 09:42:14;;;;;;;0.57;0.57;;;2.70;99.90;;;;;;4403122;32;20086;-75
2021/01/26 09:44:39;;;;;;;1.00;1.00;;;3.00;99.90;;;;;;4401483;32;20058;-75
2021/01/26 09:47:06;;;;;;;0.50;0.50;;;3.10;99.90;;;;;;4400899;32;20117;-74
2021/01/26 09:49:31;;;;;;;0.90;0.88;;;3.10;99.90;;;;;;4400793;32;20579;-74
2021/01/26 09:52:06;;;;;;;4.68;0.70;;;3.10;99.90;;;;;;4401283;32;20055;-74
2021/01/26 09:54:35;;;;;;;1.30;1.17;;;3.10;99.90;;;;;;4399999;32;20204;-74
2021/01/26 09:57:02;;;;;;;0.57;0.57;;;3.20;99.90;;;;;;4403933;32;20112;-74
2021/01/26 09:59:31;;;;;;;0.52;0.52;;;3.20;99.90;;;;;;4401420;32;20523;-74
2021/01/26 10:02:00;;;;;;;0.68;0.68;;;3.20;99.90;;;;;;4401974;32;20074;-74
2021/01/26 10:04:26;;;;;;;0.62;0.62;;;3.40;99.90;;;;;;4400704;32;20120;-75
2021/01/26 10:06:59;;;;;;;1.05;1.05;;;3.50;99.90;;;;;;4403436;32;20065;-75
2021/01/26 10:09:33;;;;;;;2.75;2.00;;;3.60;99.90;;;;;;4399451;32;20066;-75
2021/01/26 10:12:22;;;;;;;0.70;0.70;;;3.60;99.90;;;;;;4405668;32;20074;-75
2021/01/26 10:15:13;;;;;;;0.80;0.80;;;3.50;99.90;;;;;;4404388;32;20074;-74
2021/01/26 10:17:40;;;;;;;;;;;3.60;99.90;;;;;;4400047;32;20471;-74
2021/01/26 10:20:07;;;;;;;1.00;1.00;;;3.70;99.90;;;;;;4400621;32;19961;-74
2021/01/26 10:22:32;;;;;;;0.47;0.47;;;3.70;99.90;;;;;;4400854;32;20128;-74
2021/01/26 10:25:07;;;;;;;2.70;1.12;;;3.70;99.90;;;;;;4399231;32;20524;-74
2021/01/26 10:27:36;;;;;;;2.17;1.20;;;3.80;99.90;;;;;;4400826;32;20045;-74
2021/01/26 10:30:26;;;;;;;0.32;0.32;;;3.90;99.90;;;;;;4399138;32;20417;-74
2021/01/26 10:32:51;;;;;;;1.00;0.85;;;4.10;99.90;;;;;;4393120;32;20139;-74
2021/01/26 10:35:31;;;;;;;1.77;1.50;;;4.20;99.90;;;;;;4400258;32;20088;-74
2021/01/26 10:37:57;;;;;;;0.50;0.50;;;4.40;99.90;;;;;;4394591;32;20046;-74
2021/01/26 10:40:32;;;;;;;0.62;0.62;;;4.30;99.90;;;;;;4398357;32;20094;-74
2021/01/26 10:43:11;;;;;;;3.87;2.12;;;4.20;99.90;;;;;;4399706;32;20551;-76
2021/01/26 10:45:55;;;;;;;0.65;0.65;;;4.40;99.90;;;;;;4399282;32;20552;-74
2021/01/26 10:48:37;;;;;;;1.77;0.60;;;4.50;99.90;;;;;;4396596;32;20121;-74
2021/01/26 10:51:24;;;;;;;2.65;1.50;;;4.40;99.90;;;;;;4402047;32;20386;-74
2021/01/26 10:53:49;;;;;;;1.60;1.15;;;4.10;99.90;;;;;;4397774;32;20085;-74
2021/01/26 10:56:15;;;;;;;4.57;0.82;;;4.10;99.90;;;;;;4396260;32;20070;-74
2021/01/26 10:58:43;;;;;;;0.80;0.80;;;4.20;99.90;;;;;;4396686;32;20078;-74
2021/01/26 11:01:11;;;;;;;0.70;0.62;;;4.30;99.90;;;;;;4400740;32;20126;-73
2021/01/26 11:03:36;;;;;;;0.50;0.50;;;4.30;99.90;;;;;;4399828;32;20069;-74
2021/01/26 11:06:02;;;;;;;0.52;0.52;;;4.20;99.90;;;;;;4390174;32;20093;-74
2021/01/26 11:08:28;;;;;;;1.70;1.27;;;4.10;99.90;;;;;;4398768;32;20125;-74
2021/01/26 11:10:53;;;;;;;1.00;0.82;;;4.00;99.90;;;;;;4399656;32;20507;-74
2021/01/26 11:13:19;;;;;;;0.50;0.50;;;4.10;99.90;;;;;;4413438;32;20069;-74
2021/01/26 11:15:45;;;;;;;0.47;0.47;;;4.10;99.90;;;;;;4393903;32;20211;-74
2021/01/26 11:18:10;;;;;;;1.40;0.65;;;4.10;99.90;;;;;;4383434;32;20115;-74
2021/01/26 11:20:36;;;;;;;1.05;0.93;;;4.10;99.90;;;;;;4397792;32;20324;-74
2021/01/26 11:23:02;;;;;;;0.68;0.68;;;4.20;99.90;;;;;;4395118;32;20109;-74
2021/01/26 11:25:28;;;;;;;1.25;1.15;;;4.40;99.90;;;;;;4398062;32;20409;-74
2021/01/26 11:27:54;;;;;;;1.15;1.05;;;4.50;99.90;;;;;;4398189;32;20058;-74
2021/01/26 11:30:21;;;;;;;0.50;0.50;;;4.50;99.90;;;;;;4399423;32;20131;-74
2021/01/26 11:32:46;;;;;;;3.33;1.27;;;4.50;99.90;;;;;;4398650;32;20062;-76
2021/01/26 11:35:16;;;;;;;0.60;0.60;;;4.70;99.90;;;;;;4398605;32;20401;-74
2021/01/26 11:37:42;;;;;;;0.93;0.93;;;5.00;99.90;;;;;;4398754;32;20398;-74
2021/01/26 11:40:09;;;;;;;0.50;0.50;;;5.10;99.90;;;;;;4399152;32;20062;-73
2021/01/26 11:42:35;;;;;;;0.90;0.90;;;5.20;99.90;;;;;;4398663;32;20071;-74
2021/01/26 11:45:02;;;;;;;0.70;0.70;;;5.20;99.90;;;;;;4399011;32;20061;-74
2021/01/26 11:47:28;;;;;;;1.08;1.05;;;5.30;99.90;;;;;;4397839;32;20131;-74
2021/01/26 11:49:53;;;;;;;3.30;1.80;;;5.40;99.90;;;;;;4399092;32;20074;-76
2021/01/26 11:52:19;;;;;;;1.60;1.50;;;5.40;99.90;;;;;;4400109;32;20070;-75
2021/01/26 11:54:44;;;;;;;2.53;1.35;;;5.60;99.90;;;;;;4397718;32;20074;-75
2021/01/26 11:57:10;;;;;;;0.62;0.62;;;5.70;99.90;;;;;;4400107;32;20082;-75
2021/01/26 11:59:35;;;;;;;0.95;0.85;;;5.90;99.90;;;;;;4399268;32;20512;-75
2021/01/26 12:02:01;;;;;;;1.83;1.10;;;6.00;99.90;;;;;;4398752;32;20070;-75
2021/01/26 12:04:27;;;;;;;2.08;1.40;;;6.10;99.90;;;;;;4398910;32;20061;-75
2021/01/26 12:06:53;;;;;;;1.85;0.98;;;6.30;99.90;;;;;;4402187;32;20434;-76
2021/01/26 12:09:18;;;;;;;1.27;1.17;;;6.20;99.90;;;;;;4398451;32;20113;-75
2021/01/26 12:11:44;;;;;;;0.98;0.93;;;6.40;99.90;;;;;;4402470;32;20185;-75
2021/01/26 12:14:10;;;;;;;0.60;0.60;;;6.10;99.90;;;;;;4404626;32;20090;-75
2021/01/26 12:16:35;;;;;;;1.55;0.88;;;5.90;99.90;;;;;;4398282;32;20389;-75
2021/01/26 12:19:01;;;;;;;1.40;0.95;;;5.50;99.90;;;;;;4398241;32;20413;-75
2021/01/26 12:21:26;;;;;;;0.75;0.75;;;5.40;99.90;;;;;;4399071;32;20113;-75
2021/01/26 12:23:52;;;;;;;0.68;0.68;;;5.40;99.90;;;;;;4399449;32;20062;-75
2021/01/26 12:26:18;;;;;;;0.90;0.90;;;5.50;99.90;;;;;;4396864;32;20062;-75
2021/01/26 12:28:45;;;;;;;2.53;1.62;;;5.50;99.90;;;;;;4399131;32;20524;-75
2021/01/26 12:31:10;;;;;;;0.80;0.80;;;5.80;99.90;;;;;;4397935;32;20066;-75
2021/01/26 12:33:36;;;;;;;0.65;0.65;;;6.00;99.90;;;;;;4398136;32;20066;-75
2021/01/26 12:36:02;;;;;;;0.75;0.55;;;6.50;99.90;;;;;;4398131;32;20074;-75
2021/01/26 12:38:28;;;;;;;0.57;0.57;;;6.40;99.90;;;;;;4398700;32;20523;-75
2021/01/26 12:40:53;;;;;;;4.07;2.37;;;6.80;99.90;;;;;;4398361;32;20070;-75
2021/01/26 12:43:19;;;;;;;0.45;0.45;;;7.20;99.90;;;;;;4399012;32;20082;-75
2021/01/26 12:45:45;;;;;;;7.22;1.85;;;7.10;99.90;;;;;;4398464;32;20185;-75
2021/01/26 12:48:10;;;;;;;0.40;0.40;;;7.10;99.90;;;;;;4400591;32;20078;-75
2021/01/26 12:50:41;;;;;;;2.03;1.05;;;7.20;99.90;;;;;;4399813;32;20149;-75
2021/01/26 12:53:07;;;;;;;0.47;0.47;;;6.80;99.90;;;;;;4400993;32;20468;-76
2021/01/26 12:55:32;;;;;;;0.77;0.77;;;6.10;99.90;;;;;;4400301;32;20105;-75
2021/01/26 12:57:58;;;;;;;3.15;0.98;;;5.60;99.90;;;;;;4400180;32;20069;-75
2021/01/26 13:00:24;;;;;;;0.80;0.80;;;5.30;99.90;;;;;;4401516;32;20071;-75
2021/01/26 13:02:53;;;;;;;1.52;1.42;;;5.10;99.90;;;;;;4400669;32;20078;-75
2021/01/26 13:05:18;;;;;;;0.60;0.60;;;5.00;99.90;;;;;;4400717;32;20074;-75
2021/01/26 13:07:45;;;;;;;0.70;0.70;;;4.90;99.90;;;;;;4404405;32;20504;-75
2021/01/26 13:10:12;;;;;;;0.80;0.80;;;4.90;99.90;;;;;;4400740;32;20077;-75
2021/01/26 13:12:39;;;;;;;0.68;0.68;;;4.90;99.90;;;;;;4410193;32;20086;-75
2021/01/26 13:15:08;;;;;;;0.88;0.70;;;4.90;99.90;;;;;;4401806;32;20113;-75
2021/01/26 13:17:33;;;;;;;0.60;0.60;;;4.90;99.90;;;;;;4400361;32;20093;-75
2021/01/26 13:20:00;;;;;;;0.60;0.60;;;5.00;99.90;;;;;;4400672;32;20083;-75
2021/01/26 13:22:25;;;;;;;0.60;0.60;;;5.00;99.90;;;;;;4400054;32;20416;-75
2021/01/26 13:24:50;;;;;;;0.70;0.70;;;5.00;99.90;;;;;;4400398;32;20241;-75
2021/01/26 13:27:16;;;;;;;0.60;0.60;;;5.10;99.90;;;;;;4401218;32;20109;-75
2021/01/26 13:29:43;;;;;;;0.88;0.88;;;5.20;99.90;;;;;;4401553;32;20074;-75
2021/01/26 13:32:10;;;;;;;0.60;0.60;;;5.10;99.90;;;;;;4400783;32;20082;-75